Time;durP1;ratioP1;P1;durP2;ratioP2;P2;SDS_P1;SDS_P2;PMS_P1;PMS_P2;Temp;Humidity;BMP_temperature;BMP_pressure;BME280_temperature;BME280_humidity;BME280_pressure;Samples;Min_cycle;Max_cycle;Signal;HPM_P1;HPM_P2
2023/04/27 00:01:33;;;;;;;4.37;1.83;;;7.10;99.90;;;;;;5039422;28;20198;-76
2023/04/27 00:03:59;;;;;;;6.33;3.30;;;7.10;99.90;;;;;;5036600;28;20313;-77
2023/04/27 00:06:26;;;;;;;5.80;1.77;;;7.10;99.90;;;;;;5039913;28;20207;-76
2023/04/27 00:08:51;;;;;;;2.00;1.63;;;7.10;99.90;;;;;;5037951;28;20245;-77
2023/04/27 00:11:17;;;;;;;2.57;1.63;;;7.10;99.90;;;;;;5032059;28;21006;-75
2023/04/27 00:13:42;;;;;;;4.87;2.47;;;7.00;99.90;;;;;;5037651;28;20775;-76
2023/04/27 00:16:08;;;;;;;3.03;1.90;;;7.00;99.90;;;;;;5037996;28;20192;-79
2023/04/27 00:18:33;;;;;;;3.67;1.90;;;7.00;99.90;;;;;;5039969;28;20193;-76
2023/04/27 00:20:59;;;;;;;7.50;1.77;;;7.00;99.90;;;;;;5044337;28;20190;-74
2023/04/27 00:23:27;;;;;;;4.30;1.60;;;6.90;99.90;;;;;;5047188;28;20969;-72
2023/04/27 00:25:53;;;;;;;2.53;2.30;;;6.90;99.90;;;;;;5049224;28;20263;-72
2023/04/27 00:28:18;;;;;;;3.17;1.60;;;6.90;99.90;;;;;;5048463;28;20195;-72
2023/04/27 00:30:44;;;;;;;4.50;2.30;;;6.90;99.90;;;;;;5042067;28;20214;-75
2023/04/27 00:33:10;;;;;;;3.37;2.10;;;6.90;99.90;;;;;;5045311;28;20486;-73
2023/04/27 00:35:35;;;;;;;3.53;2.07;;;6.90;99.90;;;;;;5045773;28;20209;-73
2023/04/27 00:38:01;;;;;;;3.00;2.07;;;6.90;99.90;;;;;;5047877;28;20245;-72
2023/04/27 00:40:26;;;;;;;4.73;2.00;;;6.90;99.90;;;;;;5044043;28;20215;-72
2023/04/27 00:42:52;;;;;;;6.23;2.80;;;6.80;99.90;;;;;;5048130;28;20203;-72
2023/04/27 00:45:17;;;;;;;5.50;1.97;;;6.80;99.90;;;;;;5046934;28;20202;-73
2023/04/27 00:47:43;;;;;;;4.83;1.90;;;6.80;99.90;;;;;;5049056;28;20615;-72
2023/04/27 00:50:10;;;;;;;4.73;1.80;;;6.80;99.90;;;;;;5048366;28;20689;-72
2023/04/27 00:52:37;;;;;;;1.73;1.63;;;6.70;99.90;;;;;;5048079;28;20213;-72
2023/04/27 00:55:03;;;;;;;6.27;2.03;;;6.80;99.90;;;;;;5046763;28;20198;-72
2023/04/27 00:57:29;;;;;;;5.77;2.27;;;6.70;99.90;;;;;;5047852;28;20617;-72
2023/04/27 00:59:55;;;;;;;6.07;2.30;;;6.70;99.90;;;;;;5052502;28;20194;-72
2023/04/27 01:02:21;;;;;;;3.57;2.03;;;6.70;99.90;;;;;;5048874;28;20880;-72
2023/04/27 01:04:49;;;;;;;2.80;2.20;;;6.70;99.90;;;;;;5048792;28;20218;-72
2023/04/27 01:07:15;;;;;;;3.10;2.00;;;6.60;99.90;;;;;;5049086;28;20206;-72
2023/04/27 01:09:40;;;;;;;3.93;3.27;;;6.60;99.90;;;;;;5046224;28;20556;-73
2023/04/27 01:12:06;;;;;;;2.90;2.20;;;6.60;99.90;;;;;;5052205;28;20575;-73
2023/04/27 01:14:32;;;;;;;4.57;2.17;;;6.60;99.90;;;;;;5045113;28;20951;-72
2023/04/27 01:16:57;;;;;;;4.93;2.47;;;6.60;99.90;;;;;;5047227;28;20190;-72
2023/04/27 01:19:23;;;;;;;4.83;2.30;;;6.60;99.90;;;;;;5042417;28;20216;-72
2023/04/27 01:21:48;;;;;;;3.90;2.33;;;6.60;99.90;;;;;;5047825;28;20237;-72
2023/04/27 01:24:14;;;;;;;3.70;2.00;;;6.60;99.90;;;;;;5045577;28;20197;-72
2023/04/27 01:26:39;;;;;;;2.13;1.93;;;6.50;99.90;;;;;;5047826;28;20195;-73
2023/04/27 01:29:05;;;;;;;5.97;2.07;;;6.60;99.90;;;;;;5044901;28;21083;-72
2023/04/27 01:31:30;;;;;;;3.10;1.77;;;6.50;99.90;;;;;;5045994;28;20718;-71
2023/04/27 01:33:56;;;;;;;2.40;2.23;;;6.50;99.90;;;;;;5047241;28;20266;-73
2023/04/27 01:36:21;;;;;;;2.47;1.83;;;6.50;99.90;;;;;;5038302;28;20556;-72
2023/04/27 01:38:47;;;;;;;5.43;2.03;;;6.50;99.90;;;;;;5047699;28;20205;-72
2023/04/27 01:41:12;;;;;;;4.47;2.40;;;6.50;99.90;;;;;;5049326;28;20419;-72
2023/04/27 01:43:38;;;;;;;4.63;1.97;;;6.50;99.90;;;;;;5046433;28;20211;-72
2023/04/27 01:46:05;;;;;;;2.67;2.43;;;6.50;99.90;;;;;;5047436;28;20197;-72
2023/04/27 01:48:31;;;;;;;5.20;2.00;;;6.50;99.90;;;;;;5045044;28;20210;-73
2023/04/27 01:50:56;;;;;;;4.40;2.00;;;6.50;99.90;;;;;;5046178;28;20215;-73
2023/04/27 01:53:22;;;;;;;2.87;2.10;;;6.50;99.90;;;;;;5046326;28;20735;-72
2023/04/27 01:55:47;;;;;;;4.90;2.23;;;6.40;99.90;;;;;;5045062;28;20203;-72
2023/04/27 01:58:13;;;;;;;4.80;2.07;;;6.50;99.90;;;;;;5045311;28;20218;-73
2023/04/27 02:00:38;;;;;;;12.17;2.73;;;6.40;99.90;;;;;;5047102;28;20210;-72
2023/04/27 02:03:04;;;;;;;7.00;2.00;;;6.40;99.90;;;;;;5047391;28;20224;-72
2023/04/27 02:05:30;;;;;;;4.27;2.10;;;6.40;99.90;;;;;;5047514;28;20557;-72
2023/04/27 02:07:55;;;;;;;6.20;2.10;;;6.40;99.90;;;;;;5045753;28;20202;-72
2023/04/27 02:10:21;;;;;;;6.30;2.20;;;6.40;99.90;;;;;;5047009;28;20288;-72
2023/04/27 02:12:47;;;;;;;4.60;2.33;;;6.30;99.90;;;;;;5044923;28;20244;-73
2023/04/27 02:15:13;;;;;;;5.23;2.80;;;6.30;99.90;;;;;;5046359;28;20186;-72
2023/04/27 02:17:38;;;;;;;4.37;2.00;;;6.30;99.90;;;;;;5045905;28;20256;-72
2023/04/27 02:20:08;;;;;;;6.03;2.60;;;6.30;99.90;;;;;;5047977;28;20194;-72
2023/04/27 02:22:34;;;;;;;6.17;2.20;;;6.30;99.90;;;;;;5050683;28;20198;-71
2023/04/27 02:25:00;;;;;;;5.40;2.07;;;6.30;99.90;;;;;;5036305;28;20199;-72
2023/04/27 02:27:25;;;;;;;2.80;2.60;;;6.30;99.90;;;;;;5049444;28;20230;-73
2023/04/27 02:29:51;;;;;;;4.40;2.20;;;6.30;99.90;;;;;;5044008;28;20645;-73
2023/04/27 02:32:16;;;;;;;3.20;1.63;;;6.30;99.90;;;;;;5046246;28;20203;-73
2023/04/27 02:34:42;;;;;;;4.87;2.10;;;6.20;99.90;;;;;;5050884;28;20233;-72
2023/04/27 02:37:07;;;;;;;7.27;2.87;;;6.20;99.90;;;;;;5056447;28;20214;-72
2023/04/27 02:39:33;;;;;;;2.07;1.87;;;6.20;99.90;;;;;;5054460;28;20805;-72
2023/04/27 02:41:58;;;;;;;3.80;2.40;;;6.20;99.90;;;;;;5051397;28;20198;-73
2023/04/27 02:44:24;;;;;;;4.17;2.17;;;6.20;99.90;;;;;;5051180;28;20630;-73
2023/04/27 02:46:50;;;;;;;2.90;2.60;;;6.20;99.90;;;;;;5050871;28;20251;-73
2023/04/27 02:49:15;;;;;;;4.77;1.80;;;6.20;99.90;;;;;;5054196;28;20198;-72
2023/04/27 02:51:41;;;;;;;2.50;2.13;;;6.20;99.90;;;;;;5051278;28;20206;-72
2023/04/27 02:54:07;;;;;;;5.17;2.00;;;6.20;99.90;;;;;;5053944;28;20209;-72
2023/04/27 02:56:33;;;;;;;5.33;2.53;;;6.10;99.90;;;;;;5053389;28;20194;-73
2023/04/27 02:58:58;;;;;;;10.20;2.80;;;6.10;99.90;;;;;;5056270;28;20193;-74
2023/04/27 03:01:24;;;;;;;3.63;2.33;;;6.10;99.90;;;;;;5050800;28;20252;-76
2023/04/27 03:03:49;;;;;;;2.50;1.90;;;6.10;99.90;;;;;;5048087;28;20213;-73
2023/04/27 03:06:15;;;;;;;6.03;2.27;;;6.10;99.90;;;;;;5051539;28;20214;-73
2023/04/27 03:08:41;;;;;;;3.73;2.20;;;6.10;99.90;;;;;;5051208;28;20740;-73
2023/04/27 03:11:08;;;;;;;3.60;2.10;;;6.10;99.90;;;;;;5055747;28;20707;-74
2023/04/27 03:13:40;;;;;;;6.73;2.43;;;6.10;99.90;;;;;;5048605;28;20719;-71
2023/04/27 03:16:07;;;;;;;9.37;2.77;;;6.10;99.90;;;;;;5055714;28;20454;-73
2023/04/27 03:18:32;;;;;;;6.10;2.63;;;6.10;99.90;;;;;;5053971;28;20205;-73
2023/04/27 03:21:08;;;;;;;5.90;2.43;;;6.10;99.90;;;;;;5055018;28;20201;-74
2023/04/27 03:23:34;;;;;;;3.07;1.93;;;6.10;99.90;;;;;;5048269;28;20947;-73
2023/04/27 03:26:04;;;;;;;6.40;2.93;;;6.10;99.90;;;;;;5050017;28;20289;-74
2023/04/27 03:28:30;;;;;;;2.43;2.23;;;6.10;99.90;;;;;;5050900;28;20623;-73
2023/04/27 03:30:55;;;;;;;7.03;2.30;;;6.10;99.90;;;;;;5050139;28;20680;-72
2023/04/27 03:33:21;;;;;;;5.03;2.33;;;6.10;99.90;;;;;;5047880;28;20206;-73
2023/04/27 03:35:54;;;;;;;8.40;2.70;;;6.10;99.90;;;;;;5046135;28;20352;-73
2023/04/27 03:38:20;;;;;;;4.73;2.70;;;6.10;99.90;;;;;;5050275;28;20541;-74
2023/04/27 03:40:45;;;;;;;3.93;2.27;;;6.10;99.90;;;;;;5054633;28;20198;-73
2023/04/27 03:43:11;;;;;;;12.93;2.63;;;6.10;99.90;;;;;;5050693;28;20203;-73
2023/04/27 03:45:36;;;;;;;10.67;2.80;;;6.10;99.90;;;;;;5047633;28;20233;-73
2023/04/27 03:48:02;;;;;;;5.33;2.90;;;6.10;99.90;;;;;;5055355;28;20198;-73
2023/04/27 03:50:27;;;;;;;3.30;2.20;;;6.10;99.90;;;;;;5055162;28;20214;-72
2023/04/27 03:52:53;;;;;;;7.80;2.50;;;6.10;99.90;;;;;;5056551;28;20255;-73
2023/04/27 03:55:18;;;;;;;5.23;3.00;;;6.10;99.90;;;;;;5058999;28;20220;-73
2023/04/27 03:57:44;;;;;;;3.67;2.37;;;6.00;99.90;;;;;;5054414;28;20226;-73
2023/04/27 04:00:11;;;;;;;4.67;2.00;;;6.00;99.90;;;;;;5056979;28;20209;-75
2023/04/27 04:02:36;;;;;;;2.67;1.90;;;6.00;99.90;;;;;;5054850;28;20255;-73
2023/04/27 04:05:02;;;;;;;4.03;2.60;;;6.10;99.90;;;;;;5058737;28;20202;-74
2023/04/27 04:07:28;;;;;;;7.30;2.33;;;6.10;99.90;;;;;;5054067;28;20194;-73
2023/04/27 04:09:53;;;;;;;4.10;2.23;;;6.10;99.90;;;;;;5058789;28;20217;-74
2023/04/27 04:12:18;;;;;;;4.57;2.60;;;6.10;99.90;;;;;;5057020;28;20218;-74
2023/04/27 04:14:47;;;;;;;3.57;1.90;;;6.10;99.90;;;;;;5058877;28;20198;-74
2023/04/27 04:17:13;;;;;;;5.00;2.10;;;6.10;99.90;;;;;;5058890;28;20182;-74
2023/04/27 04:19:38;;;;;;;5.03;2.30;;;6.10;99.90;;;;;;5053463;28;20209;-74
2023/04/27 04:22:04;;;;;;;8.10;3.43;;;6.10;99.90;;;;;;5049628;28;20304;-75
2023/04/27 04:24:30;;;;;;;4.30;2.63;;;6.10;99.90;;;;;;5051475;28;20590;-73
2023/04/27 04:26:55;;;;;;;3.50;2.30;;;6.10;99.90;;;;;;5044444;28;20735;-74
2023/04/27 04:29:22;;;;;;;4.13;2.57;;;6.10;99.90;;;;;;5050242;28;20551;-73
2023/04/27 04:31:47;;;;;;;5.00;2.57;;;6.10;99.90;;;;;;5043654;28;20654;-73
2023/04/27 04:34:13;;;;;;;3.57;2.23;;;6.20;99.90;;;;;;5053313;28;20755;-72
2023/04/27 04:36:39;;;;;;;7.10;2.40;;;6.20;99.90;;;;;;5047930;28;20585;-73
2023/04/27 04:39:05;;;;;;;3.67;2.17;;;6.20;99.90;;;;;;5048586;28;20827;-73
2023/04/27 04:41:31;;;;;;;3.37;2.27;;;6.20;99.90;;;;;;5048048;28;20284;-73
2023/04/27 04:43:57;;;;;;;4.97;1.87;;;6.20;99.90;;;;;;5050352;28;20252;-72
2023/04/27 04:46:23;;;;;;;4.17;2.17;;;6.30;99.90;;;;;;5049290;28;20300;-73
2023/04/27 04:48:49;;;;;;;3.33;2.33;;;6.30;99.90;;;;;;5048750;28;20219;-72
2023/04/27 04:51:15;;;;;;;4.37;2.70;;;6.40;99.90;;;;;;5049222;28;20225;-71
2023/04/27 04:53:41;;;;;;;6.23;3.30;;;6.50;99.90;;;;;;5047400;28;20225;-72
2023/04/27 04:56:11;;;;;;;5.60;2.70;;;6.50;99.90;;;;;;5050914;28;20198;-72
2023/04/27 04:58:36;;;;;;;9.03;3.03;;;6.50;99.90;;;;;;5048992;28;20199;-72
2023/04/27 05:01:02;;;;;;;4.70;2.67;;;6.60;99.90;;;;;;5050175;28;20730;-72
2023/04/27 05:03:27;;;;;;;4.30;2.73;;;6.60;99.90;;;;;;5047531;28;20195;-73
2023/04/27 05:05:53;;;;;;;6.63;2.87;;;6.60;99.90;;;;;;5048207;28;20711;-73
2023/04/27 05:08:18;;;;;;;5.13;2.73;;;6.70;99.90;;;;;;5046716;28;20244;-72
2023/04/27 05:10:54;;;;;;;5.57;2.47;;;6.70;99.90;;;;;;5048486;28;20578;-74
2023/04/27 05:13:20;;;;;;;5.93;2.90;;;6.70;99.90;;;;;;5048208;28;20668;-74
2023/04/27 05:15:45;;;;;;;6.83;3.07;;;6.70;99.90;;;;;;5045456;28;20202;-74
2023/04/27 05:18:11;;;;;;;5.80;2.33;;;6.80;99.90;;;;;;5046260;28;20199;-73
2023/04/27 05:20:38;;;;;;;6.50;3.53;;;6.80;99.90;;;;;;5048183;28;20442;-73
2023/04/27 05:23:04;;;;;;;6.90;3.37;;;6.90;99.90;;;;;;5049978;28;20208;-73
2023/04/27 05:25:30;;;;;;;4.77;3.83;;;7.00;99.90;;;;;;5047566;28;20692;-73
2023/04/27 05:27:56;;;;;;;3.30;2.53;;;7.00;99.90;;;;;;5046222;28;20217;-72
2023/04/27 05:30:21;;;;;;;6.97;2.90;;;7.10;99.90;;;;;;5047739;28;20214;-74
2023/04/27 05:32:47;;;;;;;8.73;4.97;;;7.10;99.90;;;;;;5049000;28;20280;-74
2023/04/27 05:35:13;;;;;;;4.90;3.17;;;7.20;99.90;;;;;;5048232;28;20206;-73
2023/04/27 05:37:38;;;;;;;3.87;2.10;;;7.30;99.90;;;;;;5047468;28;20677;-74
2023/04/27 05:40:08;;;;;;;6.37;2.83;;;7.30;99.90;;;;;;5048114;28;20202;-74
2023/04/27 05:42:34;;;;;;;6.57;2.77;;;7.30;99.90;;;;;;5042547;28;20267;-73
2023/04/27 05:44:59;;;;;;;5.93;2.37;;;7.30;99.90;;;;;;5046813;28;20688;-74
2023/04/27 05:47:25;;;;;;;4.97;2.40;;;7.30;99.90;;;;;;5047397;28;20199;-75
2023/04/27 05:49:53;;;;;;;5.87;3.63;;;7.30;99.90;;;;;;5046997;28;20186;-75
2023/04/27 05:52:20;;;;;;;5.90;2.50;;;7.50;99.90;;;;;;5046568;28;20195;-74
2023/04/27 05:54:49;;;;;;;4.23;2.23;;;7.40;99.90;;;;;;5046669;28;21066;-74
2023/04/27 05:57:15;;;;;;;5.20;3.13;;;7.30;99.90;;;;;;5046830;28;20191;-74
2023/04/27 05:59:41;;;;;;;3.67;2.30;;;7.30;99.90;;;;;;5047606;28;20252;-74
2023/04/27 06:02:07;;;;;;;3.50;2.70;;;7.30;99.90;;;;;;5047082;28;20256;-74
2023/04/27 06:04:33;;;;;;;4.47;2.83;;;7.20;99.90;;;;;;5044936;28;20194;-74
2023/04/27 06:06:58;;;;;;;3.87;2.87;;;7.40;99.90;;;;;;5046563;28;20205;-74
2023/04/27 06:09:24;;;;;;;6.83;2.77;;;7.50;99.90;;;;;;5045298;28;20680;-73
2023/04/27 06:11:50;;;;;;;6.77;2.53;;;7.60;99.90;;;;;;5046454;28;20750;-74
2023/04/27 06:14:16;;;;;;;6.00;2.53;;;7.60;99.90;;;;;;5049606;28;20194;-74
2023/04/27 06:16:42;;;;;;;6.83;3.10;;;7.70;99.90;;;;;;5045364;28;20719;-74
2023/04/27 06:19:07;;;;;;;6.17;2.00;;;7.70;99.90;;;;;;5042466;28;20655;-73
2023/04/27 06:21:33;;;;;;;3.80;1.83;;;7.60;99.90;;;;;;5048293;28;20207;-75
2023/04/27 06:23:59;;;;;;;6.43;2.83;;;7.30;99.90;;;;;;5049115;28;20206;-76
2023/04/27 06:26:25;;;;;;;4.53;2.70;;;7.20;99.90;;;;;;5051031;28;20793;-77
2023/04/27 06:28:51;;;;;;;1.90;1.50;;;7.30;99.90;;;;;;5047664;28;20199;-74
2023/04/27 06:31:16;;;;;;;5.77;2.43;;;7.20;99.90;;;;;;5042020;28;20220;-76
2023/04/27 06:33:42;;;;;;;4.90;2.07;;;7.20;99.90;;;;;;5046355;28;20602;-75
2023/04/27 06:36:08;;;;;;;3.83;2.40;;;7.20;99.90;;;;;;5046099;28;20234;-78
2023/04/27 06:38:33;;;;;;;5.23;2.13;;;7.30;99.90;;;;;;5046041;28;20725;-76
2023/04/27 06:40:59;;;;;;;5.57;2.17;;;7.40;99.90;;;;;;5044196;28;20572;-76
2023/04/27 06:43:24;;;;;;;7.17;2.30;;;7.60;99.90;;;;;;5042823;28;20244;-76
2023/04/27 06:45:50;;;;;;;6.53;2.53;;;7.70;99.90;;;;;;5046647;28;20206;-75
2023/04/27 06:48:15;;;;;;;6.30;2.40;;;7.70;99.90;;;;;;5045888;28;20214;-75
2023/04/27 06:50:42;;;;;;;5.13;1.73;;;7.50;99.90;;;;;;5045335;28;20222;-74
2023/04/27 06:53:07;;;;;;;4.17;1.87;;;7.40;99.90;;;;;;5046149;28;20293;-76
2023/04/27 06:55:33;;;;;;;3.77;1.77;;;7.40;99.90;;;;;;5043317;28;20237;-76
2023/04/27 06:57:59;;;;;;;3.57;2.57;;;7.50;99.90;;;;;;5042716;28;20199;-75
2023/04/27 07:00:25;;;;;;;4.83;2.40;;;7.70;99.90;;;;;;5041792;28;20281;-76
2023/04/27 07:02:51;;;;;;;5.10;2.70;;;8.00;99.90;;;;;;5037668;28;20217;-76
2023/04/27 07:05:17;;;;;;;5.67;2.93;;;8.20;99.90;;;;;;5037877;28;20192;-75
2023/04/27 07:07:43;;;;;;;9.90;2.57;;;8.40;99.60;;;;;;5038695;28;20698;-77
2023/04/27 07:10:09;;;;;;;5.57;2.57;;;8.40;99.30;;;;;;5046694;28;20342;-74
2023/04/27 07:12:35;;;;;;;5.03;2.20;;;8.60;99.10;;;;;;5043329;28;20199;-82
2023/04/27 07:15:07;;;;;;;5.87;2.97;;;9.00;98.50;;;;;;5047037;28;20201;-81
2023/04/27 07:17:32;;;;;;;3.73;2.80;;;9.10;97.90;;;;;;5046012;28;20700;-81
2023/04/27 07:19:58;;;;;;;6.17;2.63;;;9.20;98.00;;;;;;5043881;28;20199;-82
2023/04/27 07:22:24;;;;;;;6.73;2.63;;;9.50;97.40;;;;;;5045776;28;20218;-82
2023/04/27 07:24:50;;;;;;;2.00;1.73;;;9.60;97.00;;;;;;5046751;28;20201;-82
2023/04/27 07:27:15;;;;;;;3.67;2.13;;;9.70;96.20;;;;;;5044367;28;20203;-82
2023/04/27 07:29:42;;;;;;;2.83;2.17;;;9.80;95.70;;;;;;5044419;28;20719;-81
2023/04/27 07:32:08;;;;;;;2.63;1.63;;;9.90;94.80;;;;;;5046966;28;20202;-83
2023/04/27 07:34:33;;;;;;;3.80;1.83;;;9.90;94.80;;;;;;5045582;28;20706;-82
2023/04/27 07:37:00;;;;;;;3.67;1.90;;;9.80;94.30;;;;;;5045996;28;20250;-66
2023/04/27 07:39:26;;;;;;;3.10;2.40;;;9.70;95.40;;;;;;5045043;28;20218;-67
2023/04/27 07:41:51;;;;;;;4.33;2.43;;;9.50;95.60;;;;;;5045473;28;20211;-68
2023/04/27 07:44:18;;;;;;;3.37;2.27;;;9.70;96.10;;;;;;5043857;28;21110;-66
2023/04/27 07:46:46;;;;;;;4.83;2.17;;;9.80;95.80;;;;;;5041367;28;20282;-68
2023/04/27 07:49:12;;;;;;;5.30;2.73;;;9.80;95.50;;;;;;5044277;28;20206;-67
2023/04/27 07:51:38;;;;;;;5.30;2.33;;;9.50;95.20;;;;;;5044900;28;20231;-67
2023/04/27 07:54:04;;;;;;;3.70;2.70;;;9.70;95.90;;;;;;5044916;28;20198;-66
2023/04/27 07:56:29;;;;;;;3.57;2.13;;;9.70;95.00;;;;;;5044980;28;20231;-67
2023/04/27 07:58:55;;;;;;;6.47;2.63;;;9.80;95.40;;;;;;5043834;28;20212;-69
2023/04/27 08:01:21;;;;;;;4.70;2.50;;;9.70;95.20;;;;;;5045887;28;20194;-66
2023/04/27 08:03:46;;;;;;;3.00;2.70;;;9.70;94.80;;;;;;5047631;28;20199;-67
2023/04/27 08:06:12;;;;;;;4.50;2.23;;;9.70;95.20;;;;;;5043890;28;20576;-66
2023/04/27 08:08:38;;;;;;;3.67;2.00;;;9.70;94.80;;;;;;5044913;28;20204;-67
2023/04/27 08:11:03;;;;;;;4.07;2.10;;;9.70;95.20;;;;;;5043246;28;20239;-66
2023/04/27 08:13:29;;;;;;;6.83;2.30;;;9.80;94.50;;;;;;5044186;28;20253;-67
2023/04/27 08:15:57;;;;;;;4.03;2.17;;;10.00;94.20;;;;;;5045225;28;20203;-66
2023/04/27 08:18:23;;;;;;;3.70;2.00;;;10.00;93.60;;;;;;5039470;28;20671;-66
2023/04/27 08:20:49;;;;;;;3.13;2.13;;;9.70;93.60;;;;;;5039407;28;20326;-65
2023/04/27 08:23:14;;;;;;;3.83;2.10;;;9.80;93.10;;;;;;5043027;28;20278;-65
2023/04/27 08:25:40;;;;;;;7.47;2.50;;;9.60;93.40;;;;;;5045170;28;20209;-66
2023/04/27 08:28:05;;;;;;;4.90;2.63;;;9.50;93.40;;;;;;5047801;28;20215;-66
2023/04/27 08:30:31;;;;;;;5.70;2.87;;;9.40;93.70;;;;;;5044293;28;20217;-66
2023/04/27 08:32:57;;;;;;;7.63;2.97;;;9.20;94.10;;;;;;5043740;28;20201;-66
2023/04/27 08:35:22;;;;;;;3.23;2.93;;;9.40;95.00;;;;;;5045107;28;20214;-67
2023/04/27 08:37:48;;;;;;;6.40;2.90;;;9.30;94.90;;;;;;5043739;28;20319;-68
2023/04/27 08:40:14;;;;;;;4.57;2.67;;;9.60;94.70;;;;;;5047928;28;20345;-67
2023/04/27 08:42:52;;;;;;;5.50;2.93;;;9.90;93.70;;;;;;5048173;28;20200;-68
2023/04/27 08:45:18;;;;;;;3.63;3.07;;;10.00;92.90;;;;;;5046457;28;20236;-66
2023/04/27 08:47:44;;;;;;;5.90;2.57;;;10.00;92.30;;;;;;5054257;28;20220;-67
2023/04/27 08:50:11;;;;;;;2.23;1.90;;;9.90;92.20;;;;;;5046053;28;20215;-66
2023/04/27 08:52:36;;;;;;;3.57;2.57;;;9.60;92.40;;;;;;5048465;28;20196;-66
2023/04/27 08:55:03;;;;;;;3.90;2.00;;;9.50;92.80;;;;;;5046369;28;20567;-66
2023/04/27 08:57:29;;;;;;;4.63;2.33;;;9.50;93.00;;;;;;5043125;28;20202;-66
2023/04/27 09:00:10;;;;;;;3.80;2.50;;;9.50;93.00;;;;;;5053030;28;20209;-66
2023/04/27 09:02:36;;;;;;;3.00;2.00;;;9.50;93.10;;;;;;5047036;28;20610;-66
2023/04/27 09:05:02;;;;;;;2.90;2.53;;;9.60;93.50;;;;;;5048311;28;20199;-67
2023/04/27 09:07:28;;;;;;;5.30;2.60;;;9.90;92.80;;;;;;5046998;28;20379;-67
2023/04/27 09:10:02;;;;;;;6.43;2.53;;;10.20;92.40;;;;;;5046742;28;20730;-67
2023/04/27 09:12:28;;;;;;;2.30;2.03;;;10.20;92.00;;;;;;5045220;28;20585;-66
2023/04/27 09:14:57;;;;;;;2.67;2.43;;;10.00;92.50;;;;;;5047542;28;20607;-62
2023/04/27 09:17:29;;;;;;;4.80;2.23;;;9.90;93.00;;;;;;5049653;28;20214;-63
2023/04/27 09:20:09;;;;;;;2.10;2.00;;;9.80;92.70;;;;;;5046946;28;20208;-63
2023/04/27 09:22:44;;;;;;;3.20;2.00;;;10.00;92.10;;;;;;5041825;28;20199;-63
2023/04/27 09:25:22;;;;;;;7.50;2.00;;;9.80;92.50;;;;;;5046563;28;20223;-64
2023/04/27 09:27:47;;;;;;;4.10;2.50;;;9.90;92.40;;;;;;5048994;28;20232;-63
2023/04/27 09:30:14;;;;;;;2.50;1.97;;;9.80;92.20;;;;;;5047378;28;20236;-62
2023/04/27 09:32:47;;;;;;;4.73;2.10;;;9.80;91.40;;;;;;5046479;28;20298;-62
2023/04/27 09:35:21;;;;;;;6.00;2.27;;;9.90;92.40;;;;;;5040222;28;20208;-62
2023/04/27 09:37:51;;;;;;;2.70;2.50;;;10.40;91.60;;;;;;5047624;28;20207;-63
2023/04/27 09:40:18;;;;;;;4.87;2.13;;;10.60;90.50;;;;;;5039399;28;20227;-62
2023/04/27 09:42:45;;;;;;;2.57;1.80;;;10.40;90.30;;;;;;5046412;28;20217;-62
2023/04/27 09:45:11;;;;;;;4.30;2.40;;;10.30;90.40;;;;;;5048495;28;21218;-63
2023/04/27 09:47:37;;;;;;;4.87;2.40;;;10.20;89.40;;;;;;5047574;28;20670;-63
2023/04/27 09:50:04;;;;;;;1.80;1.70;;;10.10;90.00;;;;;;5045782;28;20227;-63
2023/04/27 09:52:31;;;;;;;5.80;2.23;;;10.00;90.90;;;;;;5045202;28;20204;-62
2023/04/27 09:54:59;;;;;;;1.97;1.57;;;10.20;90.60;;;;;;5047294;28;20259;-61
2023/04/27 09:57:39;;;;;;;8.20;2.03;;;10.50;88.50;;;;;;5047172;28;20612;-63
2023/04/27 10:00:27;;;;;;;2.20;1.40;;;10.50;88.50;;;;;;5048065;28;20207;-65
2023/04/27 10:03:43;;;;;;;4.00;1.80;;;10.60;84.30;;;;;;5042272;28;20188;-64
2023/04/27 10:06:33;;;;;;;3.47;1.80;;;11.10;82.30;;;;;;5032280;28;20211;-64
2023/04/27 10:09:02;;;;;;;6.13;1.87;;;11.40;80.30;;;;;;5048906;28;20663;-73
2023/04/27 10:11:46;;;;;;;2.60;1.70;;;11.60;80.20;;;;;;5047062;28;20208;-76
2023/04/27 10:14:17;;;;;;;4.57;1.63;;;11.50;78.20;;;;;;5043579;28;20210;-79
2023/04/27 10:16:54;;;;;;;5.00;1.90;;;11.30;76.50;;;;;;5049288;28;20192;-76
2023/04/27 10:19:22;;;;;;;3.37;1.70;;;11.10;77.30;;;;;;5046754;28;20205;-76
2023/04/27 10:22:06;;;;;;;4.67;1.80;;;11.00;78.30;;;;;;5046329;28;20627;-77
2023/04/27 10:24:40;;;;;;;5.37;1.93;;;10.80;79.60;;;;;;5042974;28;20204;-76
2023/04/27 10:27:11;;;;;;;2.67;1.63;;;10.50;81.40;;;;;;5049992;28;20229;-76
2023/04/27 10:29:44;;;;;;;2.57;1.37;;;10.50;82.60;;;;;;5042081;28;20307;-77
2023/04/27 10:32:24;;;;;;;2.93;1.53;;;10.60;83.30;;;;;;5046483;28;20217;-76
2023/04/27 10:35:01;;;;;;;5.23;2.37;;;10.60;81.10;;;;;;5042143;28;20208;-77
2023/04/27 10:37:39;;;;;;;2.97;1.90;;;10.70;81.20;;;;;;5045993;28;20236;-76
2023/04/27 10:40:09;;;;;;;3.57;1.57;;;10.80;80.10;;;;;;5041014;28;20283;-76
2023/04/27 10:42:34;;;;;;;3.40;1.60;;;10.90;78.10;;;;;;5046399;28;20197;-76
2023/04/27 10:45:00;;;;;;;5.50;1.70;;;11.10;75.70;;;;;;5044174;28;20208;-76
2023/04/27 10:47:44;;;;;;;1.50;1.40;;;11.20;74.60;;;;;;5045507;28;20318;-78
2023/04/27 10:50:12;;;;;;;4.80;2.33;;;11.40;73.80;;;;;;5050477;28;20211;-77
2023/04/27 10:52:40;;;;;;;4.10;2.43;;;11.80;71.60;;;;;;5037088;28;20214;-77
2023/04/27 10:55:16;;;;;;;5.23;1.60;;;11.50;70.40;;;;;;5045963;28;20309;-76
2023/04/27 10:57:53;;;;;;;6.07;1.77;;;11.20;72.00;;;;;;5046666;28;20284;-75
2023/04/27 11:00:24;;;;;;;3.40;1.70;;;10.90;73.30;;;;;;5041478;28;20216;-76
2023/04/27 11:02:50;;;;;;;1.60;1.50;;;10.70;73.80;;;;;;5045728;28;20209;-77
2023/04/27 11:05:21;;;;;;;3.53;1.23;;;10.70;74.90;;;;;;5045008;28;20417;-76
2023/04/27 11:07:47;;;;;;;3.27;1.40;;;10.70;74.30;;;;;;5049295;28;20235;-76
2023/04/27 11:10:17;;;;;;;3.80;1.70;;;10.80;74.30;;;;;;5042892;28;20221;-76
2023/04/27 11:12:43;;;;;;;3.17;1.77;;;11.00;74.30;;;;;;5045571;28;20688;-76
2023/04/27 11:15:09;;;;;;;1.57;1.47;;;11.20;72.00;;;;;;5046072;28;20282;-77
2023/04/27 11:17:35;;;;;;;2.33;1.63;;;11.10;70.00;;;;;;5043194;28;20349;-76
2023/04/27 11:20:00;;;;;;;2.70;1.70;;;11.10;69.80;;;;;;5043328;28;20734;-77
2023/04/27 11:22:26;;;;;;;4.33;2.03;;;11.10;70.90;;;;;;5048721;28;20200;-77
2023/04/27 11:24:52;;;;;;;3.03;1.67;;;11.10;70.80;;;;;;5044948;28;20376;-77
2023/04/27 11:27:19;;;;;;;3.93;2.20;;;11.00;71.60;;;;;;5045486;28;20205;-82
2023/04/27 11:29:45;;;;;;;5.90;2.03;;;11.00;71.50;;;;;;5045316;28;20198;-63
2023/04/27 11:32:21;;;;;;;2.47;1.53;;;10.90;70.90;;;;;;5043333;28;20213;-63
2023/04/27 11:34:51;;;;;;;4.57;1.60;;;11.00;71.30;;;;;;5045817;28;20245;-63
2023/04/27 11:37:36;;;;;;;5.33;3.63;;;11.00;72.00;;;;;;5042550;28;20657;-63
2023/04/27 11:40:05;;;;;;;4.13;1.90;;;11.20;73.60;;;;;;5044640;28;20189;-63
2023/04/27 11:42:31;;;;;;;4.00;2.07;;;11.30;73.50;;;;;;5042757;28;20201;-63
2023/04/27 11:45:06;;;;;;;5.57;1.87;;;11.30;74.40;;;;;;5044731;28;20686;-64
2023/04/27 11:47:32;;;;;;;1.97;1.50;;;12.20;72.50;;;;;;5044827;28;20189;-63
2023/04/27 11:50:04;;;;;;;2.53;2.10;;;13.00;71.00;;;;;;5044449;28;20205;-64
2023/04/27 11:52:34;;;;;;;2.10;1.43;;;14.00;67.20;;;;;;5039872;28;20202;-63
2023/04/27 11:55:02;;;;;;;1.40;1.30;;;14.00;61.10;;;;;;5044465;28;20260;-63
2023/04/27 11:57:30;;;;;;;1.90;1.60;;;13.90;62.30;;;;;;5043448;28;20199;-64
2023/04/27 12:00:01;;;;;;;6.43;2.00;;;13.60;60.70;;;;;;5037019;28;20206;-63
2023/04/27 12:02:30;;;;;;;2.03;1.17;;;13.00;62.40;;;;;;5045731;28;20800;-65
2023/04/27 12:04:57;;;;;;;4.37;1.33;;;12.70;63.50;;;;;;5046529;28;20195;-65
2023/04/27 12:07:23;;;;;;;3.97;1.73;;;12.30;61.70;;;;;;5043719;28;20226;-63
2023/04/27 12:09:48;;;;;;;1.27;1.17;;;12.00;58.50;;;;;;5044165;28;20255;-64
2023/04/27 12:12:17;;;;;;;2.50;1.63;;;11.80;61.20;;;;;;5044612;28;20210;-64
2023/04/27 12:14:43;;;;;;;3.40;1.57;;;11.80;63.20;;;;;;5047790;28;20280;-65
2023/04/27 12:17:09;;;;;;;3.27;1.40;;;11.90;63.90;;;;;;5048338;28;20201;-64
2023/04/27 12:19:36;;;;;;;1.77;1.60;;;11.60;63.20;;;;;;5047246;28;20195;-63
2023/04/27 12:22:01;;;;;;;5.43;1.80;;;11.60;64.20;;;;;;5048936;28;20208;-63
2023/04/27 12:24:27;;;;;;;2.63;1.23;;;11.40;65.10;;;;;;5049700;28;20524;-63
2023/04/27 12:26:52;;;;;;;1.43;1.20;;;11.50;64.20;;;;;;5047465;28;20196;-63
2023/04/27 12:29:19;;;;;;;3.67;1.40;;;11.50;64.30;;;;;;5049079;28;20200;-62
2023/04/27 12:31:44;;;;;;;4.87;1.40;;;11.60;64.60;;;;;;5046552;28;20244;-63
2023/04/27 12:34:10;;;;;;;1.30;1.20;;;11.60;64.00;;;;;;5053945;28;20707;-62
2023/04/27 12:36:36;;;;;;;1.47;1.37;;;11.80;64.00;;;;;;5049402;28;20212;-64
2023/04/27 12:39:13;;;;;;;4.33;1.20;;;11.70;64.10;;;;;;5046695;28;20199;-63
2023/04/27 12:41:39;;;;;;;15.27;7.57;;;11.70;64.70;;;;;;5046571;28;20211;-64
2023/04/27 12:44:05;;;;;;;2.30;2.03;;;11.80;65.00;;;;;;5051940;28;20200;-64
2023/04/27 12:46:31;;;;;;;2.70;1.33;;;12.10;65.00;;;;;;5045868;28;20233;-63
2023/04/27 12:48:56;;;;;;;2.63;1.47;;;12.20;65.30;;;;;;5048924;28;20236;-63
2023/04/27 12:51:22;;;;;;;2.90;1.20;;;12.30;63.80;;;;;;5048323;28;20240;-63
2023/04/27 12:53:49;;;;;;;4.73;1.73;;;12.50;64.70;;;;;;5046915;28;20256;-64